SU1390 / RA-89103 7700 Squawk Report (11th of July, 2018)

Aircraft SU95 Reg No. RA-89103 Age 1 years old
Model SSJ-100 Jet engines 2 First flight 15-09-17
Registered 30-12-17 Rollout 2017 Delivered 30-12-17
Construction No. 95142 Line No. 142 Series 95B
ADSHEX 155C0F Airline name Aeroflot Russian Airlines Owner N/A
Airfield based Moscow-Sheremetyevo~Moscow~RA First tracked 2018-02-22 08:10:00

Flight history for RA-89103

Route Flight No Date Playback
Shpakovskoye (STW) - Sheremetyevo (SVO) SU1369 2018-09-22 06:13:00
Sheremetyevo (SVO) - Shpakovskoye (STW) SU1368 2018-09-21 20:15:00
Begishevo (NBC) - Sheremetyevo (SVO) SU1681 2018-09-21 18:23:00
Sheremetyevo (SVO) - Begishevo (NBC) SU1680 2018-09-21 14:41:00
Balandino (CEK) - Sheremetyevo (SVO) SU1427 2018-09-17 21:14:00
Sheremetyevo (SVO) - Balandino (CEK) SU1426 2018-09-17 17:09:00
Henri Coanda (OTP) - Sheremetyevo (SVO) SU2035 2018-09-17 14:58:00
Sheremetyevo (SVO) - Henri Coanda (OTP) SU2034 2018-09-17 09:21:00
Aktyubinsk (AKX) - Sheremetyevo (SVO) SU1949 2018-09-17 06:18:00
Sheremetyevo (SVO) - Aktyubinsk (AKX) SU1948 2018-09-17 01:20:00
Tallinn (TLL) - Sheremetyevo (SVO) SU2149 2018-09-16 21:03:00
Sheremetyevo (SVO) - Tallinn (TLL) SU2148 2018-09-16 14:10:00
Ferihegy (BUD) - Sheremetyevo (SVO) SU2033 2018-09-16 12:25:00
Sheremetyevo (SVO) - Ferihegy (BUD) SU2032 2018-09-16 07:50:00
Minsk 2 (MSQ) - Sheremetyevo (SVO) SU1843 2018-09-16 04:04:00
Sheremetyevo (SVO) - Minsk 2 (MSQ) SU1842 2018-09-15 15:54:00
Tallinn (TLL) - Sheremetyevo (SVO) SU2107 2018-09-15 13:03:00
Sheremetyevo (SVO) - Tallinn (TLL) SU2106 2018-09-15 07:56:00
Central (RTW) - Sheremetyevo (SVO) SU1361 2018-09-13 11:03:00
Sheremetyevo (SVO) - Central (RTW) SU1360 2018-09-13 09:47:00
Time Lat Lon Altitude Heading Speed Vertical Rate
2018-07-11 07:19:26 GMT 61.304443 49.783958 10,800 63 292 -1536
2018-07-11 07:18:59 GMT 61.288162 49.715069 11,500 63 298 -1600
2018-07-11 07:18:47 GMT 61.281551 49.686890 11,775 63 300 -1536
2018-07-11 07:18:36 GMT 61.274849 49.658405 12,075 64 301 -1600
2018-07-11 07:18:21 GMT 61.265213 49.617310 12,475 64 303 -1600
2018-07-11 07:18:16 GMT 61.262009 49.604645 12,625 61 305 -1600
2018-07-11 07:18:06 GMT 61.255463 49.580318 12,875 59 306 -1664
2018-07-11 07:17:57 GMT 61.248322 49.555893 13,150 57 307 -1664
2018-07-11 07:17:46 GMT 61.240028 49.529724 13,425 56 309 -1664
2018-07-11 07:17:31 GMT 61.228714 49.494221 13,850 56 313 -1728
2018-07-11 07:17:26 GMT 61.223877 49.479088 14,000 56 314 -1600
2018-07-11 07:17:14 GMT 61.214981 49.451294 14,300 56 316 -1728
2018-07-11 07:17:05 GMT 61.207069 49.426575 14,575 56 319 -1664
2018-07-11 07:16:55 GMT 61.198792 49.400906 14,875 56 322 -1664
2018-07-11 07:16:44 GMT 61.189865 49.373051 15,175 56 325 -1856
2018-07-11 07:16:33 GMT 61.180664 49.344601 15,500 56 328 -1792
2018-07-11 07:16:22 GMT 61.172108 49.317932 15,800 56 330 -1728
2018-07-11 07:16:13 GMT 61.163544 49.291534 16,100 56 332 -1728
2018-07-11 07:16:02 GMT 61.154278 49.262798 16,425 56 334 -1728
2018-07-11 07:15:52 GMT 61.145947 49.237061 16,700 56 335 -1856
2018-07-11 07:15:40 GMT 61.136078 49.206684 17,050 56 338 -1792
2018-07-11 07:15:31 GMT 61.127884 49.181316 17,325 56 339 -1792
2018-07-11 07:15:21 GMT 61.119083 49.154255 17,650 56 340 -1792
2018-07-11 07:15:11 GMT 61.110260 49.127033 17,950 56 342 -1856
2018-07-11 07:15:01 GMT 61.100975 49.098511 18,275 56 343 -1792
2018-07-11 07:14:50 GMT 61.091663 49.069927 18,575 55 345 -1856
2018-07-11 07:14:40 GMT 61.082657 49.042282 18,900 55 346 -1856
2018-07-11 07:14:29 GMT 61.073418 49.013874 19,225 55 347 -1920
2018-07-11 07:14:19 GMT 61.063843 48.984604 19,550 56 349 -1792
2018-07-11 07:14:09 GMT 61.054733 48.956745 19,875 55 352 -1856
2018-07-11 07:13:59 GMT 61.045212 48.927803 20,200 55 353 -1920
2018-07-11 07:13:48 GMT 61.035553 48.898251 20,525 55 355 -1920
2018-07-11 07:13:37 GMT 61.026031 48.869175 20,850 55 357 -1920
2018-07-11 07:13:28 GMT 61.016281 48.839439 21,175 56 359 -1984
2018-07-11 07:13:17 GMT 61.007172 48.811764 21,500 55 361 -1920
2018-07-11 07:13:06 GMT 60.997303 48.781750 21,850 55 363 -1920
2018-07-11 07:12:56 GMT 60.987442 48.751736 22,200 55 367 -1856
2018-07-11 07:12:45 GMT 60.977474 48.721519 22,500 55 370 -1792
2018-07-11 07:12:35 GMT 60.967232 48.690620 22,825 55 374 -1856
2018-07-11 07:12:25 GMT 60.957268 48.660408 23,150 55 379 -2048
2018-07-11 07:12:14 GMT 60.946930 48.629372 23,525 55 382 -2176
2018-07-11 07:12:04 GMT 60.936646 48.598515 23,875 55 385 -2240
2018-07-11 07:11:54 GMT 60.926079 48.567024 24,250 55 387 -2240
2018-07-11 07:11:43 GMT 60.915745 48.535046 24,650 57 389 -1856
2018-07-11 07:11:33 GMT 60.906063 48.502972 24,925 59 393 -1984
2018-07-11 07:11:22 GMT 60.896473 48.469128 25,300 60 398 -2240
2018-07-11 07:11:12 GMT 60.887238 48.434269 25,675 62 404 -2368
2018-07-11 07:11:02 GMT 60.878689 48.400368 26,075 62 407 -2240
2018-07-11 07:10:51 GMT 60.869110 48.362194 26,475 62 411 -2112
2018-07-11 07:10:41 GMT 60.860905 48.329739 26,800 62 414 -2240
2018-07-11 07:10:31 GMT 60.851456 48.292366 27,225 62 418 -2240
2018-07-11 07:10:21 GMT 60.842098 48.255287 27,625 62 421 -2176
2018-07-11 07:10:10 GMT 60.833256 48.220367 27,975 62 424 -2176
2018-07-11 07:10:00 GMT 60.823517 48.181965 28,375 62 427 -2432
2018-07-11 07:09:50 GMT 60.813980 48.144543 28,800 62 428 -2240
2018-07-11 07:09:39 GMT 60.804440 48.107071 29,175 62 430 -2112
2018-07-11 07:09:29 GMT 60.794907 48.069637 29,550 62 434 -1920
2018-07-11 07:09:19 GMT 60.785446 48.032619 29,900 62 437 -2176
2018-07-11 07:09:08 GMT 60.775669 47.994461 30,275 62 440 -2240
2018-07-11 07:08:58 GMT 60.766357 47.957970 30,650 62 440 -2112
2018-07-11 07:08:47 GMT 60.756023 47.917950 31,025 62 440 -2048
2018-07-11 07:08:37 GMT 60.746521 47.880974 31,375 62 438 -2176
2018-07-11 07:08:27 GMT 60.736752 47.842911 31,725 62 438 -1216
2018-07-11 07:08:17 GMT 60.727116 47.805634 31,925 62 441 -1024
2018-07-11 07:08:06 GMT 60.717682 47.769123 32,125 62 443 -1216
2018-07-11 07:07:55 GMT 60.706970 47.727734 32,325 62 445 -1152
2018-07-11 07:07:45 GMT 60.697369 47.690769 32,500 62 446 -1152
2018-07-11 07:07:35 GMT 60.687195 47.651588 32,700 62 446 -1152
2018-07-11 07:07:25 GMT 60.677582 47.614651 32,900 62 446 -960
2018-07-11 07:07:15 GMT 60.667282 47.574966 33,025 61 448 64
2018-07-11 07:07:04 GMT 60.657532 47.537746 33,000 61 448 64
2018-07-11 07:06:53 GMT 60.646912 47.497021 32,975 61 448 0
2018-07-11 07:06:43 GMT 60.637161 47.459896 33,000 61 448 -128
2018-07-11 07:06:33 GMT 60.627411 47.422768 33,025 61 447 0
2018-07-11 07:06:23 GMT 60.617344 47.384426 33,000 61 448 0
2018-07-11 07:06:12 GMT 60.607086 47.345486 33,000 61 448 0
2018-07-11 07:06:02 GMT 60.597015 47.307411 33,000 61 448 0
2018-07-11 07:05:52 GMT 60.586853 47.268871 33,000 61 448 0
2018-07-11 07:05:41 GMT 60.576782 47.230793 33,000 61 448 0
2018-07-11 07:05:31 GMT 60.566483 47.192059 33,000 61 448 0
2018-07-11 07:05:21 GMT 60.556362 47.153908 33,000 61 448 0
2018-07-11 07:05:11 GMT 60.546707 47.117710 33,000 61 449 0
2018-07-11 07:05:00 GMT 60.536179 47.078026 33,000 61 450 64
2018-07-11 07:04:50 GMT 60.525776 47.039143 33,000 61 450 0
2018-07-11 07:04:37 GMT 60.513702 46.993923 33,000 61 450 0
2018-07-11 07:04:29 GMT 60.504776 46.960682 33,000 61 451 64
2018-07-11 07:04:18 GMT 60.494865 46.923588 33,000 61 451 -64
2018-07-11 07:04:08 GMT 60.484863 46.886333 33,000 61 451 0
2018-07-11 07:03:58 GMT 60.474335 46.847218 33,000 61 451 0
2018-07-11 07:03:47 GMT 60.464001 46.809017 33,000 61 450 0
2018-07-11 07:03:38 GMT 60.453899 46.771645 33,000 61 450 0
2018-07-11 07:03:27 GMT 60.443344 46.732620 33,000 61 450 0
2018-07-11 07:03:17 GMT 60.433365 46.695683 33,000 61 449 0
2018-07-11 07:03:07 GMT 60.422928 46.657326 33,000 61 448 64
2018-07-11 07:02:56 GMT 60.412628 46.619442 33,000 61 448 0
2018-07-11 07:02:46 GMT 60.402145 46.581085 33,000 61 447 -64
2018-07-11 07:02:35 GMT 60.391891 46.543385 33,000 61 446 -64
2018-07-11 07:02:25 GMT 60.381821 46.506641 33,000 61 445 0
2018-07-11 07:02:15 GMT 60.371456 46.468834 33,000 61 445 64
2018-07-11 07:02:04 GMT 60.360607 46.429104 33,000 61 446 0
2018-07-11 07:01:53 GMT 60.350460 46.392323 33,000 60 447 -64
2018-07-11 07:01:44 GMT 60.340210 46.355011 33,000 60 447 -64
2018-07-11 07:01:33 GMT 60.329792 46.317181 33,000 60 447 0
2018-07-11 07:01:23 GMT 60.319550 46.280102 33,000 60 447 0
2018-07-11 07:01:13 GMT 60.308990 46.241833 33,000 60 447 64
2018-07-11 07:01:02 GMT 60.299023 46.205849 33,000 60 449 64
2018-07-11 07:00:52 GMT 60.288219 46.167004 33,000 60 449 0
2018-07-11 07:00:42 GMT 60.277771 46.129318 33,000 60 448 0
2018-07-11 07:00:30 GMT 60.266647 46.089256 33,000 60 448 0
2018-07-11 07:00:21 GMT 60.257034 46.054878 33,000 60 447 -64
2018-07-11 07:00:11 GMT 60.246414 46.016899 33,025 60 447 128
2018-07-11 07:00:00 GMT 60.235840 45.979202 33,000 60 447 0
2018-07-11 06:59:50 GMT 60.225403 45.941982 33,000 60 447 0
2018-07-11 06:59:40 GMT 60.214737 45.904003 33,025 60 447 64
2018-07-11 06:59:29 GMT 60.204300 45.866974 33,000 60 447 0
2018-07-11 06:59:18 GMT 60.193859 45.829861 33,000 60 447 0
2018-07-11 06:59:08 GMT 60.183838 45.794235 33,000 60 446 0
2018-07-11 06:58:58 GMT 60.172668 45.754646 33,000 60 446 0
2018-07-11 06:58:48 GMT 60.162598 45.718845 33,000 60 446 0
2018-07-11 06:58:38 GMT 60.151978 45.681057 33,000 60 446 0
2018-07-11 06:58:27 GMT 60.141815 45.645069 33,000 60 446 -64
2018-07-11 06:58:16 GMT 60.130829 45.606209 33,000 60 446 64
2018-07-11 06:58:07 GMT 60.120865 45.571095 33,000 60 446 0
2018-07-11 06:57:56 GMT 60.110485 45.534504 33,000 60 446 0
2018-07-11 06:57:45 GMT 60.099380 45.495522 33,000 60 445 -64
2018-07-11 06:57:35 GMT 60.089127 45.459343 33,025 60 445 0
2018-07-11 06:57:25 GMT 60.078827 45.423351 33,025 60 444 0
2018-07-11 06:57:15 GMT 60.068214 45.386089 33,000 60 444 0
2018-07-11 06:57:04 GMT 60.056854 45.346462 33,000 60 444 0
2018-07-11 06:56:54 GMT 60.046570 45.310463 33,000 60 444 0
2018-07-11 06:56:43 GMT 60.036438 45.275227 33,000 60 446 0
2018-07-11 06:56:33 GMT 60.025944 45.238754 33,000 60 446 0
2018-07-11 06:56:24 GMT 60.015793 45.203529 33,000 60 446 0
2018-07-11 06:56:13 GMT 60.004486 45.164207 33,000 60 445 0
2018-07-11 06:56:02 GMT 59.994186 45.128521 33,000 60 444 0
2018-07-11 06:55:53 GMT 59.983932 45.093193 33,000 60 444 0
2018-07-11 06:55:41 GMT 59.972363 45.053165 33,000 59 444 0
2018-07-11 06:55:31 GMT 59.962463 45.019131 33,000 59 444 0
2018-07-11 06:55:22 GMT 59.952072 44.983337 33,000 59 444 0
2018-07-11 06:55:10 GMT 59.940857 44.944885 33,000 59 444 0
2018-07-11 06:55:00 GMT 59.929722 44.906712 33,000 59 443 0
2018-07-11 06:54:51 GMT 59.919525 44.871857 33,000 59 443 0
2018-07-11 06:54:40 GMT 59.909424 44.837288 33,000 59 443 0
2018-07-11 06:54:29 GMT 59.898811 44.801014 33,000 59 443 64
2018-07-11 06:54:20 GMT 59.888199 44.764740 33,000 59 444 0
2018-07-11 06:54:09 GMT 59.877457 44.728271 33,000 59 445 0
2018-07-11 06:53:59 GMT 59.866791 44.692017 33,000 59 444 -64
2018-07-11 06:53:48 GMT 59.855484 44.653656 33,000 59 441 -64
2018-07-11 06:53:38 GMT 59.845600 44.620213 33,000 59 441 -64
2018-07-11 06:53:27 GMT 59.834198 44.581696 33,000 59 441 64
2018-07-11 06:53:18 GMT 59.824265 44.548187 33,000 59 441 -64
2018-07-11 06:53:15 GMT 59.822250 44.541321 33,000 59 441 -64
2018-07-11 06:53:07 GMT 59.813389 44.511486 33,025 59 441 -64
2018-07-11 06:53:04 GMT 59.809895 44.499840 33,025 59 441 -64
2018-07-11 06:52:57 GMT 59.802914 44.476254 33,000 59 441 0
2018-07-11 06:52:52 GMT 59.798210 44.460533 33,000 59 441 64
2018-07-11 06:52:45 GMT 59.791534 44.438141 33,000 59 441 0
2018-07-11 06:52:36 GMT 59.780708 44.401814 33,000 59 441 0
2018-07-11 06:52:25 GMT 59.770279 44.366863 33,000 59 441 -64
2018-07-11 06:52:20 GMT 59.764881 44.348869 33,000 59 441 -64
2018-07-11 06:52:15 GMT 59.759109 44.329456 33,000 59 442 0
2018-07-11 06:52:12 GMT 59.757431 44.323963 33,000 59 442 0
2018-07-11 06:52:05 GMT 59.748596 44.294495 33,000 59 442 64
2018-07-11 06:51:53 GMT 59.737244 44.256775 33,000 59 443 0
2018-07-11 06:51:43 GMT 59.726849 44.222149 33,000 59 443 -64
2018-07-11 06:51:33 GMT 59.715347 44.183983 33,000 59 443 0
2018-07-11 06:51:24 GMT 59.705620 44.151684 33,000 59 442 0
2018-07-11 06:51:14 GMT 59.695099 44.116737 33,000 59 442 -64
2018-07-11 06:51:03 GMT 59.684254 44.080936 33,000 59 441 0
2018-07-11 06:50:43 GMT 59.662125 44.007843 33,000 59 441 64
2018-07-11 06:50:31 GMT 59.651619 43.973061 33,000 59 442 -64
2018-07-11 06:50:26 GMT 59.646637 43.956581 33,000 59 441 -64
2018-07-11 06:50:22 GMT 59.641434 43.939362 33,000 59 441 -64
2018-07-11 06:50:11 GMT 59.629601 43.900421 33,000 59 441 0
2018-07-11 06:50:00 GMT 59.618912 43.865112 33,000 59 440 0
2018-07-11 06:49:51 GMT 59.608383 43.830597 33,000 59 441 -64
2018-07-11 06:49:39 GMT 59.596802 43.792419 33,000 58 442 0
2018-07-11 06:49:29 GMT 59.586182 43.757721 33,000 58 442 0
2018-07-11 06:49:18 GMT 59.575287 43.722107 33,000 58 441 0
2018-07-11 06:49:09 GMT 59.565674 43.690521 33,000 58 441 0
2018-07-11 06:49:00 GMT 59.554504 43.654175 33,000 58 441 0
2018-07-11 06:48:54 GMT 59.549149 43.636688 33,000 58 440 0
2018-07-11 06:48:49 GMT 59.544083 43.620174 33,000 58 440 64
2018-07-11 06:48:46 GMT 59.541504 43.611694 33,000 58 440 64
2018-07-11 06:48:38 GMT 59.532955 43.583996 33,000 58 440 0
2018-07-11 06:48:29 GMT 59.521820 43.547699 33,000 58 440 0
2018-07-11 06:48:25 GMT 59.518661 43.537537 33,000 58 440 0
2018-07-11 06:48:18 GMT 59.511246 43.513458 33,000 58 439 0
2018-07-11 06:48:15 GMT 59.507721 43.502014 33,000 58 439 0
2018-07-11 06:48:07 GMT 59.499710 43.476105 33,000 58 439 0
2018-07-11 06:47:58 GMT 59.489384 43.442688 33,000 58 438 0
2018-07-11 06:47:54 GMT 59.485474 43.430092 33,000 58 438 0
2018-07-11 06:47:46 GMT 59.478306 43.406887 33,000 58 438 0
2018-07-11 06:47:41 GMT 59.471649 43.385483 33,000 58 439 0
2018-07-11 06:47:36 GMT 59.467438 43.371826 33,000 58 439 0
2018-07-11 06:47:27 GMT 59.455856 43.334656 33,000 58 439 -64
2018-07-11 06:47:22 GMT 59.451553 43.320831 33,000 58 438 0
2018-07-11 06:47:15 GMT 59.445786 43.302246 33,000 58 438 0
2018-07-11 06:47:11 GMT 59.441017 43.286983 33,000 58 438 0
2018-07-11 06:47:06 GMT 59.434891 43.267181 33,000 58 438 0
2018-07-11 06:47:00 GMT 59.429333 43.249481 33,000 302 272 -1280
2018-07-11 06:46:55 GMT 59.423584 43.231018 33,000 58 438 0
2018-07-11 06:46:49 GMT 59.417587 43.211884 33,025 302 274 -1344
2018-07-11 06:46:45 GMT 59.412712 43.196346 33,025 58 438 0
2018-07-11 06:46:37 GMT 59.405544 43.173332 33,000 302 276 -1472
2018-07-11 06:46:33 GMT 59.401260 43.159695 33,000 58 439 64
2018-07-11 06:46:29 GMT 59.396484 43.144318 33,000 58 439 -64
2018-07-11 06:46:23 GMT 59.390396 43.125000 33,000 58 439 0
2018-07-11 06:46:17 GMT 59.383667 43.103577 33,000 301 279 -1024
2018-07-11 06:46:12 GMT 59.378731 43.087906 33,000 58 438 0
2018-07-11 06:46:08 GMT 59.374168 43.073223 33,000 300 282 -512
2018-07-11 06:45:57 GMT 59.362110 43.034962 33,000 294 297 -384
2018-07-11 06:45:44 GMT 59.349308 42.994331 33,000 58 437 64
2018-07-11 06:45:40 GMT 59.343582 42.976242 33,000 58 437 0
2018-07-11 06:45:36 GMT 59.340454 42.966339 33,000 58 437 0
2018-07-11 06:45:32 GMT 59.335922 42.951874 33,000 58 436 0
2018-07-11 06:45:23 GMT 59.325241 42.918186 33,000 58 436 64
2018-07-11 06:45:14 GMT 59.317886 42.895020 33,000 58 435 -128
2018-07-11 06:45:04 GMT 59.305801 42.856842 33,000 58 434 -128
2018-07-11 06:44:59 GMT 59.301079 42.842037 33,025 58 434 64
2018-07-11 06:44:52 GMT 59.292236 42.814098 33,025 58 434 64
2018-07-11 06:44:43 GMT 59.284927 42.791199 33,000 58 434 0
2018-07-11 06:44:40 GMT 59.281109 42.779152 33,000 58 434 0
2018-07-11 06:44:32 GMT 59.273300 42.754761 33,000 58 434 0
2018-07-11 06:44:29 GMT 59.269592 42.743042 33,000 58 435 64
2018-07-11 06:44:21 GMT 59.259880 42.712570 33,000 58 436 0
2018-07-11 06:44:10 GMT 59.249313 42.679516 33,000 58 436 64
2018-07-11 06:43:59 GMT 59.237629 42.643055 33,000 58 436 192
2018-07-11 06:43:50 GMT 59.227062 42.610096 33,000 57 435 0
2018-07-11 06:43:38 GMT 59.215302 42.573395 33,000 57 434 0
2018-07-11 06:43:31 GMT 59.206833 42.547119 33,025 57 433 64
2018-07-11 06:43:26 GMT 59.201969 42.531864 33,000 57 433 -64
2018-07-11 06:43:18 GMT 59.193192 42.504639 33,000 57 432 64
2018-07-11 06:43:08 GMT 59.183762 42.475433 33,000 57 432 0
2018-07-11 06:42:59 GMT 59.174133 42.445583 33,000 57 432 -128
2018-07-11 06:42:53 GMT 59.166779 42.422791 33,000 57 432 0
2018-07-11 06:42:48 GMT 59.161469 42.406403 33,000 57 432 0
2018-07-11 06:42:36 GMT 59.149017 42.367859 33,000 57 431 0
2018-07-11 06:42:28 GMT 59.140896 42.342823 33,000 57 431 -128
2018-07-11 06:42:16 GMT 59.127777 42.302490 33,025 57 430 0
2018-07-11 06:42:08 GMT 59.118988 42.275482 33,000 57 430 64
2018-07-11 06:41:56 GMT 59.107269 42.239502 33,025 57 430 64
2018-07-11 06:41:50 GMT 59.101231 42.220932 33,000 57 430 64
2018-07-11 06:41:44 GMT 59.094761 42.201042 33,000 57 431 64
2018-07-11 06:41:36 GMT 59.084290 42.169006 33,000 57 431 -64
2018-07-11 06:41:26 GMT 59.074928 42.140430 33,000 57 431 0
2018-07-11 06:41:23 GMT 59.072090 42.131718 33,000 57 431 0
2018-07-11 06:41:15 GMT 59.063759 42.106239 33,000 57 430 0
2018-07-11 06:41:05 GMT 59.052429 42.071777 33,000 57 430 0
2018-07-11 06:40:55 GMT 59.040665 42.035980 33,000 57 429 -64
2018-07-11 06:40:44 GMT 59.030136 42.003937 33,000 57 428 64
2018-07-11 06:40:33 GMT 59.019196 41.970612 33,025 57 428 128
2018-07-11 06:40:22 GMT 59.007103 41.933964 33,000 57 428 64
2018-07-11 06:40:13 GMT 58.997086 41.903687 33,000 57 428 -64
2018-07-11 06:40:03 GMT 58.986107 41.870506 33,000 57 428 64
2018-07-11 06:39:50 GMT 58.972733 41.830078 33,000 57 429 0
2018-07-11 06:39:41 GMT 58.962845 41.800232 33,000 57 429 0
2018-07-11 06:39:30 GMT 58.951172 41.765167 33,000 57 429 -64
2018-07-11 06:39:18 GMT 58.939137 41.728916 33,000 57 429 64
2018-07-11 06:39:09 GMT 58.929035 41.698608 33,000 57 428 -64
2018-07-11 06:38:58 GMT 58.917618 41.664551 33,000 57 428 0
2018-07-11 06:38:48 GMT 58.906273 41.630512 33,000 57 428 -64
2018-07-11 06:38:38 GMT 58.895599 41.598724 33,000 57 428 0
2018-07-11 06:38:28 GMT 58.884159 41.564690 33,000 57 427 0
2018-07-11 06:38:16 GMT 58.871704 41.527588 33,000 57 427 0
2018-07-11 06:38:06 GMT 58.861679 41.497833 33,000 56 427 -64
2018-07-11 06:37:56 GMT 58.850224 41.463821 33,000 56 427 0
2018-07-11 06:37:45 GMT 58.838974 41.430508 33,000 56 426 64
2018-07-11 06:37:35 GMT 58.827599 41.396942 33,000 56 426 0
2018-07-11 06:37:25 GMT 58.816406 41.363792 33,025 56 426 64
2018-07-11 06:37:14 GMT 58.805115 41.330566 33,000 56 426 64
2018-07-11 06:37:03 GMT 58.793839 41.297165 33,000 56 427 -64
2018-07-11 06:36:53 GMT 58.782768 41.264374 33,000 57 426 64
2018-07-11 06:36:43 GMT 58.771687 41.231232 33,025 57 426 128
2018-07-11 06:36:32 GMT 58.760098 41.197723 33,000 53 426 0
2018-07-11 06:36:21 GMT 58.747620 41.166595 33,000 49 426 -128
2018-07-11 06:36:12 GMT 58.734421 41.138393 33,000 45 427 0
2018-07-11 06:36:01 GMT 58.719223 41.110397 33,000 40 427 -64
2018-07-11 06:35:50 GMT 58.703255 41.085297 33,000 38 428 64
2018-07-11 06:35:40 GMT 58.687473 41.061493 33,000 37 428 0
2018-07-11 06:35:29 GMT 58.670929 41.036682 33,000 38 430 0
2018-07-11 06:35:20 GMT 58.654724 41.012405 33,025 38 430 128
2018-07-11 06:35:09 GMT 58.638641 40.988342 33,000 37 431 128
2018-07-11 06:34:58 GMT 58.622208 40.963806 33,000 37 431 0
2018-07-11 06:34:48 GMT 58.605824 40.939270 33,000 37 431 64
2018-07-11 06:34:38 GMT 58.590042 40.915745 33,000 37 431 -64
2018-07-11 06:34:28 GMT 58.572922 40.890141 33,000 37 430 0
2018-07-11 06:34:17 GMT 58.557407 40.867035 33,000 37 429 0
2018-07-11 06:34:06 GMT 58.541023 40.842773 33,000 37 429 -64
2018-07-11 06:33:54 GMT 58.521702 40.814117 33,000 37 427 -64
2018-07-11 06:33:45 GMT 58.508057 40.793831 33,000 37 427 0
2018-07-11 06:33:35 GMT 58.492001 40.770081 33,000 37 427 128
2018-07-11 06:33:25 GMT 58.475616 40.745819 33,000 37 429 0
2018-07-11 06:33:15 GMT 58.459488 40.721889 33,000 37 430 0
2018-07-11 06:33:04 GMT 58.443356 40.698120 33,000 37 431 -64
2018-07-11 06:32:53 GMT 58.425613 40.671917 33,025 37 432 0
2018-07-11 06:32:43 GMT 58.410675 40.649963 33,000 37 432 0
2018-07-11 06:32:33 GMT 58.393963 40.625336 33,000 37 432 64
2018-07-11 06:32:22 GMT 58.377182 40.600685 33,000 37 433 0
2018-07-11 06:32:12 GMT 58.360634 40.576447 33,000 37 433 0
2018-07-11 06:32:01 GMT 58.343826 40.551819 33,000 37 432 0
2018-07-11 06:31:55 GMT 58.333649 40.536980 33,000 37 432 0
2018-07-11 06:31:50 GMT 58.327068 40.527283 33,000 37 432 -64
2018-07-11 06:31:45 GMT 58.318970 40.515472 33,000 37 432 -64
2018-07-11 06:31:40 GMT 58.310867 40.503662 33,000 37 431 -64
2018-07-11 06:31:36 GMT 58.304993 40.495075 33,000 37 431 -64
2018-07-11 06:31:28 GMT 58.289658 40.472748 33,000 37 430 0
2018-07-11 06:31:17 GMT 58.274963 40.451305 33,000 37 430 -64
2018-07-11 06:31:09 GMT 58.261520 40.431702 33,000 37 430 0
2018-07-11 06:31:06 GMT 58.257797 40.426319 33,000 37 430 0
2018-07-11 06:30:58 GMT 58.244392 40.406799 33,000 37 429 64
2018-07-11 06:30:55 GMT 58.239120 40.399208 33,000 37 428 64
2018-07-11 06:30:47 GMT 58.227863 40.382904 33,000 37 428 64
2018-07-11 06:30:44 GMT 58.223022 40.375763 33,000 37 428 0
2018-07-11 06:30:37 GMT 58.211517 40.359161 33,000 37 428 0
2018-07-11 06:30:34 GMT 58.205612 40.350567 33,000 37 428 -64
2018-07-11 06:30:27 GMT 58.195221 40.335419 33,000 37 428 64
2018-07-11 06:30:21 GMT 58.185883 40.321953 33,000 37 428 0
2018-07-11 06:30:16 GMT 58.178146 40.310699 33,000 37 428 0
2018-07-11 06:30:11 GMT 58.170914 40.300331 33,000 37 428 0
2018-07-11 06:30:06 GMT 58.162319 40.287872 33,000 37 427 0
2018-07-11 06:30:01 GMT 58.155533 40.278004 33,000 37 427 0
2018-07-11 06:29:55 GMT 58.145966 40.264271 33,000 37 427 64
2018-07-11 06:29:50 GMT 58.137459 40.251984 33,000 37 427 0
2018-07-11 06:29:44 GMT 58.128616 40.239166 33,000 37 427 -64
2018-07-11 06:29:41 GMT 58.123634 40.232025 33,000 37 427 0
2018-07-11 06:29:34 GMT 58.112789 40.216370 33,000 37 427 0
2018-07-11 06:29:31 GMT 58.108383 40.210049 33,000 37 427 0
2018-07-11 06:29:23 GMT 58.096264 40.192657 33,000 37 427 0
2018-07-11 06:29:13 GMT 58.079681 40.168762 33,000 37 427 -64
2018-07-11 06:29:06 GMT 58.069309 40.153931 33,000 37 427 64
2018-07-11 06:29:02 GMT 58.062466 40.144043 33,000 37 427 0
2018-07-11 06:28:58 GMT 58.056412 40.135345 33,000 37 427 0
2018-07-11 06:28:52 GMT 58.046776 40.121613 33,000 37 426 0
2018-07-11 06:28:48 GMT 58.041050 40.113373 33,000 37 426 0
2018-07-11 06:28:42 GMT 58.030716 40.098633 33,000 37 426 0
2018-07-11 06:28:39 GMT 58.024944 40.090302 33,000 37 425 0
2018-07-11 06:28:31 GMT 58.014221 40.074936 33,000 37 425 0
2018-07-11 06:28:28 GMT 58.008728 40.067139 33,000 37 425 0
2018-07-11 06:28:21 GMT 57.997330 40.050835 33,000 37 425 0
2018-07-11 06:28:18 GMT 57.991798 40.042969 33,000 37 426 0
2018-07-11 06:28:10 GMT 57.980850 40.027359 33,000 37 426 64
2018-07-11 06:28:04 GMT 57.972248 40.015045 33,000 37 426 0
2018-07-11 06:28:00 GMT 57.964474 40.003967 33,000 37 426 -64
2018-07-11 06:27:55 GMT 57.957397 39.993896 33,000 37 426 -64
2018-07-11 06:27:49 GMT 57.948074 39.980576 33,000 37 426 -64
2018-07-11 06:27:46 GMT 57.942352 39.972515 33,000 37 427 0
2018-07-11 06:27:39 GMT 57.931412 39.956921 33,000 37 427 -64
2018-07-11 06:27:34 GMT 57.924110 39.946564 33,000 37 427 0
2018-07-11 06:27:25 GMT 57.909439 39.925735 33,000 37 427 -64
2018-07-11 06:27:18 GMT 57.898270 39.909874 33,000 37 427 0
2018-07-11 06:27:14 GMT 57.892689 39.902069 33,000 37 427 64
2018-07-11 06:27:06 GMT 57.881470 39.886131 33,000 37 428 64
2018-07-11 06:27:02 GMT 57.875324 39.877441 33,000 36 427 0
2018-07-11 06:26:56 GMT 57.864716 39.862473 33,000 36 427 -128
2018-07-11 06:26:52 GMT 57.857170 39.851807 33,000 36 427 64
2018-07-11 06:26:45 GMT 57.848419 39.839439 33,000 36 427 64
2018-07-11 06:26:35 GMT 57.831333 39.815277 33,000 36 427 0
2018-07-11 06:26:30 GMT 57.824070 39.805115 33,000 36 427 -64
2018-07-11 06:26:25 GMT 57.814899 39.792114 33,000 37 427 -64
2018-07-11 06:26:19 GMT 57.805122 39.778381 33,000 36 426 0
2018-07-11 06:26:14 GMT 57.798523 39.769089 33,000 36 426 0
2018-07-11 06:26:04 GMT 57.781986 39.745880 33,000 36 425 0
2018-07-11 06:26:00 GMT 57.775051 39.736084 33,000 36 425 0
2018-07-11 06:25:53 GMT 57.765518 39.722752 33,000 36 425 0
2018-07-11 06:25:48 GMT 57.758526 39.712921 33,000 36 425 64
2018-07-11 06:25:42 GMT 57.748657 39.699097 33,000 36 425 0
2018-07-11 06:25:38 GMT 57.742081 39.689793 33,000 36 425 0
2018-07-11 06:25:32 GMT 57.731552 39.675087 33,025 36 425 64
2018-07-11 06:25:21 GMT 57.715790 39.652935 33,000 36 427 0
2018-07-11 06:25:15 GMT 57.706787 39.640388 33,000 36 427 64
2018-07-11 06:25:10 GMT 57.698521 39.628838 33,000 36 428 64
2018-07-11 06:25:04 GMT 57.687241 39.613094 33,000 36 428 0
2018-07-11 06:24:59 GMT 57.681526 39.605091 33,000 36 429 -128
2018-07-11 06:24:52 GMT 57.669983 39.588966 33,000 36 429 64
2018-07-11 06:24:49 GMT 57.664810 39.581852 33,000 36 429 64
2018-07-11 06:24:41 GMT 57.652664 39.564957 33,000 36 429 -128
2018-07-11 06:24:38 GMT 57.648331 39.558849 33,000 36 429 0
2018-07-11 06:24:29 GMT 57.632183 39.536427 33,000 36 428 -64
2018-07-11 06:24:17 GMT 57.614864 39.512329 33,000 36 428 0
2018-07-11 06:24:10 GMT 57.603424 39.496449 33,000 36 429 -64
2018-07-11 06:24:00 GMT 57.587128 39.473877 33,000 36 430 0
2018-07-11 06:23:55 GMT 57.579941 39.463921 33,000 36 430 64
2018-07-11 06:23:49 GMT 57.568871 39.448540 33,000 36 430 0
2018-07-11 06:23:37 GMT 57.551506 39.424526 33,000 36 430 -64
2018-07-11 06:23:28 GMT 57.536179 39.403324 33,000 36 431 0
2018-07-11 06:23:18 GMT 57.519245 39.379963 33,000 36 432 0
2018-07-11 06:23:06 GMT 57.501884 39.356041 33,000 36 433 -128
2018-07-11 06:22:56 GMT 57.484451 39.332001 33,025 36 434 0
2018-07-11 06:22:43 GMT 57.464264 39.304192 33,025 36 436 0
2018-07-11 06:22:34 GMT 57.447556 39.281273 33,025 36 437 64
2018-07-11 06:22:18 GMT 57.424187 39.249275 33,025 36 437 64
2018-07-11 06:22:12 GMT 57.411667 39.232178 33,000 36 437 64
2018-07-11 06:22:02 GMT 57.398071 39.213661 33,000 36 436 192
2018-07-11 06:21:53 GMT 57.381363 39.190891 32,950 36 435 704
2018-07-11 06:21:41 GMT 57.364746 39.167206 32,775 38 435 1280
2018-07-11 06:21:31 GMT 57.348358 39.142487 32,575 40 434 832
2018-07-11 06:21:20 GMT 57.332336 39.116821 32,400 41 434 1408
2018-07-11 06:21:09 GMT 57.315952 39.089176 32,125 43 433 1024
2018-07-11 06:20:59 GMT 57.301437 39.064121 31,975 42 433 960
2018-07-11 06:20:48 GMT 57.285275 39.036285 31,775 43 432 1088
2018-07-11 06:20:37 GMT 57.269169 39.008553 31,575 42 433 1088
2018-07-11 06:20:27 GMT 57.254505 38.983391 31,425 43 436 896
2018-07-11 06:20:17 GMT 57.239090 38.956921 31,250 42 438 1088
2018-07-11 06:20:07 GMT 57.222710 38.928726 31,050 42 440 384
2018-07-11 06:19:55 GMT 57.207184 38.902161 31,000 42 439 0
2018-07-11 06:19:44 GMT 57.191101 38.874680 31,000 42 438 64
2018-07-11 06:19:34 GMT 57.174248 38.845882 31,025 42 438 0
2018-07-11 06:19:27 GMT 57.164471 38.829227 31,000 42 438 64
2018-07-11 06:19:23 GMT 57.159943 38.821480 30,975 42 438 64
2018-07-11 06:19:13 GMT 57.144455 38.795116 30,975 42 438 64
2018-07-11 06:19:02 GMT 57.127232 38.765789 30,975 42 438 64
2018-07-11 06:18:51 GMT 57.112381 38.740540 31,000 42 437 -256
2018-07-11 06:18:41 GMT 57.096691 38.713871 31,025 42 433 128
2018-07-11 06:18:29 GMT 57.079979 38.685608 31,000 42 428 -64
2018-07-11 06:18:19 GMT 57.064636 38.659599 31,000 42 428 64
2018-07-11 06:18:12 GMT 57.054382 38.642178 31,025 42 433 -128
2018-07-11 06:18:02 GMT 57.040039 38.618008 31,000 42 430 64
2018-07-11 06:17:56 GMT 57.029610 38.600376 31,000 42 431 64
2018-07-11 06:17:48 GMT 57.019501 38.583298 31,000 42 431 -128
2018-07-11 06:17:45 GMT 57.015877 38.577164 31,000 42 431 64
2018-07-11 06:17:38 GMT 57.005219 38.559177 31,000 42 433 -128
2018-07-11 06:17:30 GMT 56.993362 38.539268 31,000 42 433 0
2018-07-11 06:17:24 GMT 56.984665 38.524673 31,000 42 433 0
2018-07-11 06:17:20 GMT 56.977203 38.512058 31,000 42 431 0
2018-07-11 06:17:17 GMT 56.973541 38.505962 31,000 42 431 0
2018-07-11 06:17:13 GMT 56.968460 38.497379 31,000 42 430 0
2018-07-11 06:17:04 GMT 56.955276 38.475239 31,000 42 429 -64
2018-07-11 06:16:59 GMT 56.946701 38.460831 31,000 42 428 -64
2018-07-11 06:16:53 GMT 56.936829 38.444252 31,000 42 428 -64
2018-07-11 06:16:48 GMT 56.931664 38.435581 31,025 42 427 -64
2018-07-11 06:16:45 GMT 56.926731 38.427341 31,025 42 427 -128
2018-07-11 06:16:38 GMT 56.916489 38.410240 31,025 42 427 0
2018-07-11 06:16:32 GMT 56.906113 38.392838 31,025 42 427 128
2018-07-11 06:16:28 GMT 56.901592 38.385258 31,000 42 428 64
2018-07-11 06:16:24 GMT 56.896774 38.377216 31,000 42 428 64
2018-07-11 06:16:21 GMT 56.891647 38.368633 31,000 42 429 0
2018-07-11 06:16:17 GMT 56.886200 38.359535 31,000 42 429 64
2018-07-11 06:16:13 GMT 56.881203 38.351147 31,000 42 429 64
2018-07-11 06:16:10 GMT 56.875626 38.341854 31,000 42 430 0
2018-07-11 06:16:03 GMT 56.865921 38.325634 31,000 42 429 128
2018-07-11 06:16:00 GMT 56.859604 38.315174 31,000 42 428 256
2018-07-11 06:15:56 GMT 56.855392 38.308208 30,975 42 428 64
2018-07-11 06:15:53 GMT 56.850311 38.299625 30,975 42 427 576
2018-07-11 06:15:48 GMT 56.843399 38.288212 30,950 42 426 896
2018-07-11 06:15:44 GMT 56.836464 38.276634 30,875 42 426 1088
2018-07-11 06:15:39 GMT 56.829071 38.264351 30,775 42 425 1024
2018-07-11 06:15:34 GMT 56.823624 38.255253 30,725 42 424 1024
2018-07-11 06:15:27 GMT 56.814167 38.239510 30,600 42 424 960
2018-07-11 06:15:23 GMT 56.808350 38.229942 30,500 42 424 1024
2018-07-11 06:15:17 GMT 56.798996 38.214397 30,425 42 423 1024
2018-07-11 06:15:14 GMT 56.794601 38.207104 30,325 42 423 960
2018-07-11 06:15:10 GMT 56.788834 38.197491 30,300 42 421 960
2018-07-11 06:15:07 GMT 56.783813 38.189186 30,250 42 421 960
2018-07-11 06:15:04 GMT 56.780369 38.183514 30,200 42 421 1024
2018-07-11 06:14:59 GMT 56.773247 38.171730 30,125 42 419 960
2018-07-11 06:14:56 GMT 56.767197 38.161720 30,050 42 419 960
2018-07-11 06:14:53 GMT 56.764076 38.156490 30,025 42 419 1152
2018-07-11 06:14:49 GMT 56.757931 38.146393 29,950 42 418 1664
2018-07-11 06:14:42 GMT 56.749039 38.131683 29,775 42 418 1792
2018-07-11 06:14:38 GMT 56.743286 38.122128 29,650 42 418 1856
2018-07-11 06:14:35 GMT 56.737289 38.112259 29,525 42 418 1856
2018-07-11 06:14:31 GMT 56.733582 38.106079 29,425 42 418 1920
2018-07-11 06:14:26 GMT 56.726395 38.094234 29,275 42 418 1728
2018-07-11 06:14:21 GMT 56.718979 38.081963 29,125 42 417 1536
2018-07-11 06:14:15 GMT 56.711334 38.069401 28,975 42 416 1536
2018-07-11 06:14:11 GMT 56.705608 38.060005 28,375 42 416 1472
2018-07-11 06:14:05 GMT 56.696136 38.044369 28,700 42 415 1536
2018-07-11 06:14:01 GMT 56.690758 38.035465 28,375 42 411 1472
2018-07-11 06:13:52 GMT 56.677368 38.013470 28,375 42 411 1472
2018-07-11 06:13:49 GMT 56.674137 38.008179 28,350 42 411 1472
2018-07-11 06:13:45 GMT 56.666317 37.995331 28,200 42 409 1600
2018-07-11 06:13:42 GMT 56.661846 37.987976 28,125 42 409 1728
2018-07-11 06:13:39 GMT 56.659660 37.984432 28,075 42 408 1728
2018-07-11 06:13:34 GMT 56.652306 37.972294 27,925 42 408 1792
2018-07-11 06:13:29 GMT 56.645187 37.960594 27,775 42 407 1728
2018-07-11 06:13:23 GMT 56.637035 37.947220 27,600 42 407 1600
2018-07-11 06:13:19 GMT 56.632099 37.939247 27,500 42 405 1536
2018-07-11 06:13:12 GMT 56.622574 37.923603 27,325 42 404 1728
2018-07-11 06:13:09 GMT 56.617020 37.914440 27,225 41 403 1920
2018-07-11 06:13:02 GMT 56.607880 37.899570 27,000 42 402 1920
2018-07-11 06:12:58 GMT 56.603073 37.891674 26,900 41 402 1984
2018-07-11 06:12:49 GMT 56.588669 37.868156 26,375 42 401 1728
2018-07-11 06:12:42 GMT 56.581192 37.855972 26,375 42 401 1728
2018-07-11 06:12:37 GMT 56.574051 37.844296 26,225 42 400 1600
2018-07-11 06:12:30 GMT 56.563530 37.827213 26,025 41 397 1728
2018-07-11 06:12:27 GMT 56.559631 37.820766 25,950 41 397 1728
2018-07-11 06:12:20 GMT 56.550110 37.805286 25,700 41 395 1792
2018-07-11 06:12:17 GMT 56.545303 37.797462 25,625 41 395 1728
2018-07-11 06:12:06 GMT 56.531036 37.774258 25,350 41 391 1536
2018-07-11 06:11:56 GMT 56.517025 37.751514 25,050 41 388 1984
2018-07-11 06:11:45 GMT 56.502453 37.727821 24,675 41 385 2112
2018-07-11 06:11:35 GMT 56.488770 37.705578 24,325 41 384 2176
2018-07-11 06:11:27 GMT 56.478291 37.688599 24,025 41 383 2560
2018-07-11 06:11:23 GMT 56.474945 37.683189 23,900 41 383 2624
2018-07-11 06:11:13 GMT 56.460556 37.659843 23,450 41 383 2176
2018-07-11 06:11:03 GMT 56.446915 37.637875 23,025 41 373 2048
2018-07-11 06:10:55 GMT 56.438187 37.623764 22,875 41 379 1984
2018-07-11 06:10:52 GMT 56.433060 37.615524 22,750 41 378 2048
2018-07-11 06:10:46 GMT 56.424820 37.602207 22,525 41 376 1984
2018-07-11 06:10:42 GMT 56.418869 37.592636 22,375 41 375 1984
2018-07-11 06:10:33 GMT 56.408295 37.575489 22,100 41 372 2048
2018-07-11 06:10:30 GMT 56.404495 37.569412 22,000 41 371 1984
2018-07-11 06:10:22 GMT 56.394730 37.553673 21,750 41 369 2048
2018-07-11 06:10:19 GMT 56.391796 37.548950 21,675 41 368 2048
2018-07-11 06:10:14 GMT 56.384262 37.536873 21,450 41 366 2048
2018-07-11 06:10:10 GMT 56.378357 37.527382 21,300 41 366 1984
2018-07-11 06:10:04 GMT 56.371216 37.515896 21,125 41 365 1984
2018-07-11 06:09:58 GMT 56.365082 37.505993 20,950 41 365 1920
2018-07-11 06:09:51 GMT 56.354782 37.489513 20,700 41 364 2048
2018-07-11 06:09:48 GMT 56.351810 37.484753 20,625 41 363 2112
2018-07-11 06:09:44 GMT 56.345806 37.475140 20,450 41 363 2176
2018-07-11 06:09:40 GMT 56.342407 37.469646 20,350 41 362 2176
2018-07-11 06:09:37 GMT 56.337517 37.461746 20,200 41 363 1792
2018-07-11 06:09:31 GMT 56.329742 37.449303 20,050 41 362 256
2018-07-11 06:09:27 GMT 56.325348 37.442322 20,000 41 361 128
2018-07-11 06:09:19 GMT 56.316101 37.427505 20,000 41 361 128
2018-07-11 06:09:16 GMT 56.310936 37.419174 20,000 41 361 0
2018-07-11 06:09:11 GMT 56.305771 37.410934 20,000 41 359 64
2018-07-11 06:09:08 GMT 56.303116 37.406731 20,000 41 359 128
2018-07-11 06:09:05 GMT 56.298615 37.399544 20,000 41 358 192
2018-07-11 06:09:01 GMT 56.293713 37.391708 19,925 41 356 1152
2018-07-11 06:08:58 GMT 56.290054 37.385891 19,950 41 357 832
2018-07-11 06:08:55 GMT 56.285660 37.378838 19,825 41 356 1280
2018-07-11 06:08:51 GMT 56.280910 37.371284 19,850 41 357 1472
2018-07-11 06:08:47 GMT 56.277100 37.365170 19,775 41 357 1472
2018-07-11 06:08:44 GMT 56.272251 37.357464 19,675 41 357 1472
2018-07-11 06:08:37 GMT 56.264244 37.344761 19,525 41 357 1536
2018-07-11 06:08:33 GMT 56.259338 37.336868 19,350 41 356 1536
2018-07-11 06:08:30 GMT 56.255447 37.330769 19,325 41 356 1536
2018-07-11 06:08:26 GMT 56.251099 37.323803 19,250 41 355 1472
2018-07-11 06:08:23 GMT 56.246834 37.317039 19,150 41 354 1408
2018-07-11 06:08:19 GMT 56.241806 37.309055 18,975 41 351 2176
2018-07-11 06:08:16 GMT 56.238144 37.303329 18,975 41 352 1792
2018-07-11 06:08:12 GMT 56.233753 37.296352 18,425 41 350 2752
2018-07-11 06:08:06 GMT 56.226013 37.284103 18,650 41 350 2752
2018-07-11 06:08:00 GMT 56.217407 37.270535 17,375 41 344 2368
2018-07-11 06:07:55 GMT 56.212372 37.262547 18,125 41 348 2944
2018-07-11 06:07:52 GMT 56.207703 37.255138 17,925 41 347 2880
2018-07-11 06:07:49 GMT 56.205276 37.251308 17,825 41 345 2304
2018-07-11 06:07:44 GMT 56.199863 37.242794 17,625 41 347 2432
2018-07-11 06:07:40 GMT 56.194336 37.234081 17,450 41 345 2304
2018-07-11 06:07:37 GMT 56.190971 37.228806 17,250 41 344 2496
2018-07-11 06:07:34 GMT 56.187481 37.223309 17,000 41 342 2560
2018-07-11 06:07:31 GMT 56.183075 37.216434 17,050 41 341 3072
2018-07-11 06:07:24 GMT 56.174633 37.203140 16,700 41 340 3008
2018-07-11 06:07:18 GMT 56.166115 37.189838 16,325 41 340 2880
2018-07-11 06:07:15 GMT 56.164902 37.187973 16,275 41 340 2816
2018-07-11 06:07:10 GMT 56.157410 37.176189 15,975 41 338 2624
2018-07-11 06:07:04 GMT 56.152660 37.168720 15,800 41 338 2624
2018-07-11 06:06:59 GMT 56.145264 37.157093 15,525 41 335 3072
2018-07-11 06:06:55 GMT 56.140511 37.149670 14,900 42 330 2624
2018-07-11 06:06:50 GMT 56.135971 37.142361 15,100 41 334 3008
2018-07-11 06:06:46 GMT 56.131290 37.134991 14,900 41 333 2816
2018-07-11 06:06:43 GMT 56.127987 37.129581 14,775 42 332 2688
2018-07-11 06:06:40 GMT 56.124542 37.124088 14,625 42 331 2624
2018-07-11 06:06:37 GMT 56.120499 37.117393 14,375 43 328 2880
2018-07-11 06:06:33 GMT 56.116608 37.110985 14,325 43 328 2880
2018-07-11 06:06:30 GMT 56.113510 37.105721 14,050 45 325 3264
2018-07-11 06:06:27 GMT 56.109737 37.099197 13,925 44 326 3200
2018-07-11 06:06:23 GMT 56.104752 37.090343 13,750 47 326 3264
2018-07-11 06:06:18 GMT 56.099670 37.080605 12,950 48 326 2944
2018-07-11 06:06:15 GMT 56.097107 37.075363 13,350 50 325 2560
2018-07-11 06:06:11 GMT 56.093170 37.066788 13,175 52 325 1920
2018-07-11 06:06:08 GMT 56.091248 37.062210 13,100 53 324 1856
2018-07-11 06:06:05 GMT 56.087719 37.053452 12,825 57 323 1792
2018-07-11 06:06:02 GMT 56.086212 37.049477 12,925 56 323 1856
2018-07-11 06:05:58 GMT 56.081528 37.036030 12,750 60 320 1856
2018-07-11 06:05:52 GMT 56.078548 37.026588 12,600 61 319 1792
2018-07-11 06:05:47 GMT 56.074963 37.014568 12,450 61 316 1920
2018-07-11 06:05:41 GMT 56.070820 37.001095 12,275 60 312 1984
2018-07-11 06:05:37 GMT 56.067627 36.991051 12,000 59 308 2048
2018-07-11 06:05:31 GMT 56.063557 36.978867 11,925 57 306 2176
2018-07-11 06:05:27 GMT 56.059135 36.966591 11,750 56 307 2048
2018-07-11 06:05:24 GMT 56.056915 36.960838 11,625 53 307 1984
2018-07-11 06:05:21 GMT 56.055691 36.958096 11,575 49 307 1920
2018-07-11 06:05:16 GMT 56.050243 36.947453 11,375 41 307 1984
2018-07-11 06:05:11 GMT 56.045242 36.940113 11,225 35 306 1984
2018-07-11 06:05:06 GMT 56.037689 36.931957 11,025 26 307 1984
2018-07-11 06:05:03 GMT 56.033524 36.928627 10,925 21 308 1920
2018-07-11 06:05:00 GMT 56.032135 36.927711 10,875 18 309 1856
2018-07-11 06:04:55 GMT 56.024406 36.924019 10,700 9 310 2048
2018-07-11 06:04:51 GMT 56.017471 36.922646 10,550 0 312 2112
2018-07-11 06:04:45 GMT 56.008942 36.923218 10,325 353 309 2176
2018-07-11 06:04:40 GMT 56.002579 36.925301 10,175 345 307 2432
2018-07-11 06:04:34 GMT 55.994705 36.930042 9,925 335 305 2624
2018-07-11 06:04:29 GMT 55.988937 36.935368 9,725 329 303 2752
2018-07-11 06:04:23 GMT 55.982254 36.943943 9,450 316 302 3200
2018-07-11 06:04:20 GMT 55.978180 36.950886 9,250 311 302 3392
2018-07-11 06:04:13 GMT 55.972137 36.964748 8,850 295 306 3584
2018-07-11 06:04:09 GMT 55.969803 36.972256 8,650 295 306 3584
2018-07-11 06:04:05 GMT 55.967239 36.983311 8,375 289 306 3776
2018-07-11 06:04:01 GMT 55.965843 36.991913 8,150 282 308 3712
2018-07-11 06:03:57 GMT 55.964962 36.999378 7,950 281 309 3584
2018-07-11 06:03:54 GMT 55.963806 37.011692 7,675 280 308 3008
2018-07-11 06:03:51 GMT 55.963394 37.016270 7,550 280 309 3008
2018-07-11 06:03:48 GMT 55.962799 37.022842 7,450 280 308 3008
2018-07-11 06:03:41 GMT 55.961048 37.041862 7,050 280 305 3456
2018-07-11 06:03:37 GMT 55.960304 37.049763 6,875 280 303 3328
2018-07-11 06:03:30 GMT 55.958675 37.067871 6,475 280 302 2240
2018-07-11 06:03:27 GMT 55.958073 37.074223 6,375 280 300 1920
2018-07-11 06:03:19 GMT 55.955975 37.097137 6,075 280 297 1792
2018-07-11 06:03:16 GMT 55.955429 37.103409 5,850 280 294 1920
2018-07-11 06:03:12 GMT 55.954346 37.115250 5,850 280 294 1920
2018-07-11 06:03:08 GMT 55.953918 37.119804 5,775 280 289 1984
2018-07-11 06:03:05 GMT 55.952858 37.131214 5,625 280 281 2176
2018-07-11 06:02:56 GMT 55.951366 37.147694 5,375 280 275 2176
2018-07-11 06:02:53 GMT 55.950714 37.154903 5,225 280 270 1728
2018-07-11 06:02:46 GMT 55.949085 37.171898 5,025 280 269 1344
2018-07-11 06:02:39 GMT 55.947647 37.186642 4,850 281 266 1664
2018-07-11 06:02:36 GMT 55.946991 37.193012 4,800 281 265 1664
2018-07-11 06:02:33 GMT 55.946274 37.199375 4,700 281 260 1472
2018-07-11 06:02:26 GMT 55.944897 37.215157 4,525 275 254 960
2018-07-11 06:02:23 GMT 55.944710 37.222710 4,450 257 230 640
2018-07-11 06:02:18 GMT 55.944851 37.229576 4,350 260 235 704
2018-07-11 06:02:15 GMT 55.945271 37.236359 4,325 257 230 640
2018-07-11 06:02:12 GMT 55.945827 37.242023 4,325 256 228 640
2018-07-11 06:02:06 GMT 55.947281 37.252144 4,100 256 202 1152
2018-07-11 06:02:03 GMT 55.948471 37.260216 4,225 256 206 1344
2018-07-11 06:01:59 GMT 55.949226 37.265369 4,150 256 205 1344
2018-07-11 06:01:52 GMT 55.951088 37.277985 4,000 256 197 896
2018-07-11 06:01:48 GMT 55.951721 37.282104 3,925 256 182 960
2018-07-11 06:01:45 GMT 55.952545 37.287846 3,925 256 182 960
2018-07-11 06:01:42 GMT 55.953049 37.291260 3,875 256 177 1280
2018-07-11 06:01:38 GMT 55.953789 37.296436 3,800 256 172 1792
2018-07-11 06:01:34 GMT 55.954906 37.303822 3,575 256 166 2368
2018-07-11 06:01:30 GMT 55.955605 37.308800 3,500 256 166 2432
2018-07-11 06:01:26 GMT 55.956207 37.312733 3,375 256 165 2496
2018-07-11 06:01:23 GMT 55.957047 37.318497 3,200 256 165 2496
2018-07-11 06:01:18 GMT 55.957745 37.323387 3,050 256 165 2368
2018-07-11 06:01:13 GMT 55.958954 37.331631 2,800 256 164 2240
2018-07-11 06:01:07 GMT 55.959732 37.336952 2,650 256 164 2240
2018-07-11 06:01:02 GMT 55.961060 37.345860 2,400 256 162 2112
2018-07-11 06:00:58 GMT 55.961700 37.350166 2,275 256 160 2112
2018-07-11 06:00:52 GMT 55.962708 37.357262 2,075 256 158 2048
2018-07-11 06:00:47 GMT 55.963612 37.363213 1,925 256 156 1856
2018-07-11 06:00:42 GMT 55.964542 37.369740 1,750 256 150 2112
2018-07-11 06:00:36 GMT 55.965565 37.376518 1,550 256 147 2496
2018-07-11 06:00:31 GMT 55.966404 37.382011 1,350 256 147 2624
2018-07-11 06:00:26 GMT 55.967239 37.387722 1,150 255 148 2816
2018-07-11 06:00:18 GMT 55.968704 37.397209 750 255 140
2018-07-11 06:00:07 GMT 55.970768 37.410702 0 255 140
2018-07-11 05:59:55 GMT 55.972431 37.421795 0 255 90
2018-07-11 05:59:46 GMT 55.973179 37.426884 0 255 41
2018-07-11 05:55:12 GMT 55.971451 37.429462 0 64 11
2018-07-11 05:54:56 GMT 55.971256 37.428253 0 64 8
2018-07-11 05:54:21 GMT 55.971050 37.426800 0 64 5
2018-07-11 05:53:44 GMT 55.970932 37.426044 0 64 6
2018-07-11 05:53:38 GMT 55.970879 37.425716 0 154 10
2018-07-11 05:53:27 GMT 55.970722 37.424648 0 154 17
2018-07-11 05:52:28 GMT 55.969486 37.416515 0 154 15
2018-07-11 05:52:13 GMT 55.969315 37.415119 0 154 9
2018-07-11 05:52:03 GMT 55.969482 37.414524 0 154 9
2018-07-11 05:51:47 GMT 55.969860 37.414261 0 154 3
2018-07-11 05:51:41 GMT 55.969917 37.414253 0 154 0
2018-07-11 05:51:29 GMT 55.969952 37.414230 0 154 1
2018-07-11 05:51:18 GMT 55.970043 37.414188 0 154 5
2018-07-11 05:51:05 GMT 55.970661 37.413898 0 154 19
2018-07-11 05:50:58 GMT 55.971222 37.413628 0 154 20
2018-07-11 05:50:47 GMT 55.972126 37.413212 0 154 12
2018-07-11 05:50:39 GMT 55.972389 37.413067 0 154 3
2018-07-11 05:50:20 GMT 55.972420 37.413059 0 154 0
2018-07-11 05:50:12 GMT 55.972504 37.413006 0 154 5
2018-07-11 05:50:07 GMT 55.972698 37.412922 0 154 12
2018-07-11 05:49:52 GMT 55.973740 37.412422 0 154 19
2018-07-11 05:49:44 GMT 55.974438 37.412090 0 154 14
2018-07-11 05:49:30 GMT 55.974895 37.411880 0 154 4
2018-07-11 05:49:21 GMT 55.975021 37.411819 0 154 4
2018-07-11 05:49:14 GMT 55.975159 37.411736 0 154 6
2018-07-11 05:49:03 GMT 55.975410 37.411621 0 154 6
2018-07-11 05:48:53 GMT 55.975628 37.411526 0 154 5
2018-07-11 05:48:42 GMT 55.975880 37.411423 0 154 6
2018-07-11 05:48:32 GMT 55.976170 37.411236 0 129 7
2018-07-11 05:48:19 GMT 55.976360 37.410755 0 78 7
2018-07-11 05:48:07 GMT 55.976307 37.410034 0 143 9
2018-07-11 05:47:47 GMT 55.975994 37.407948 0 143 16
2018-07-11 05:47:38 GMT 55.975811 37.406700 0 143 20
2018-07-11 05:47:26 GMT 55.975559 37.405014 0 143 18
2018-07-11 05:47:13 GMT 55.975262 37.403042 0 143 19
2018-07-11 05:47:01 GMT 55.975018 37.401409 0 143 17
2018-07-11 05:46:52 GMT 55.974842 37.400230 0 143 15
2018-07-11 05:46:46 GMT 55.974735 37.399544 0 143 13
2018-07-11 05:46:35 GMT 55.974621 37.398598 0 143 9
2018-07-11 05:46:25 GMT 55.974796 37.398041 0 143 7
2018-07-11 05:46:13 GMT 55.975121 37.397781 0 126 7
2018-07-11 05:46:02 GMT 55.975273 37.397358 0 115 8
2018-07-11 05:45:49 GMT 55.975262 37.396420 0 115 9
2018-07-11 05:45:40 GMT 55.975182 37.395859 0 115 9
2018-07-11 05:45:25 GMT 55.974995 37.394672 0 115 11
2018-07-11 05:45:13 GMT 55.974861 37.393757 0 115 10
2018-07-11 05:45:03 GMT 55.974758 37.393051 0 115 10
2018-07-11 05:44:57 GMT 55.974678 37.392570 0 115 9
2018-07-11 05:44:46 GMT 55.974564 37.391773 0 115 10
2018-07-11 05:44:31 GMT 55.974380 37.390594 0 115 9
2018-07-11 05:44:25 GMT 55.974312 37.390076 0 115 11
2018-07-11 05:44:14 GMT 55.974209 37.389347 0 115 7
2018-07-11 05:44:04 GMT 55.974258 37.388901 0 132 6
2018-07-11 05:43:47 GMT 55.974506 37.388702 0 157 0
2018-07-11 05:43:36 GMT 55.974518 37.388721 0 157 0
2018-07-11 05:43:31 GMT 55.974514 37.388706 0 157 0
2018-07-11 05:43:21 GMT 55.974518 37.388702 0 157 0
2018-07-11 05:42:57 GMT 55.974503 37.388683 0 157 0
2018-07-11 05:42:28 GMT 55.974495 37.388680 0 157 0
2018-07-11 05:41:51 GMT 55.974503 37.388683 0 157 0
2018-07-11 05:41:27 GMT 55.974525 37.388706 0 157 0
2018-07-11 05:41:11 GMT 55.974506 37.388680 0 157 0
2018-07-11 05:41:01 GMT 55.974506 37.388660 0 157 0
2018-07-11 05:40:51 GMT 55.974514 37.388664 0 157 0

Making use of Plane Finder data

You are free to use the raw flight data, aircraft information and images provided in this report for your own purposes provided the data is correctly attributed to Plane Finder. We ask that you please credit Plane Finder and link to planefinder.net in close proximity to the content.

Optionally one of the following logos (no smaller then 150x24px) can be used and must link to planefinder.net

Embedding the Plane Finder map

You are welcome to embed the Plane Finder playback map on your website to offer visitors a more interactive experience. We suggest using the following HTML code:

<iframe src="//planefinder.net/data/report/SU1390-RA-89103-7700-squawk-2018-07-11/map" width="800" height="600" seamless="seamless"></iframe>

Where our data comes from

Plane Finder has a global network of data feeds and antenna radars that receive data broadcast directly from aircraft. The primary technologies used are ADS-B and MLAT. We also show feeds from the FAA and a FLARM glider feed.

Click here to find out more about the Plane Finder network.

How we collect our data